Time;durP1;ratioP1;P1;durP2;ratioP2;P2;SDS_P1;SDS_P2;PMS_P1;PMS_P2;Temp;Humidity;BMP_temperature;BMP_pressure;BME280_temperature;BME280_humidity;BME280_pressure;Samples;Min_cycle;Max_cycle;Signal;HPM_P1;HPM_P2
2021/01/16 00:02:13;;;;;;;12.30;11.00;;;6.10;59.00;;;;;;4907098;29;20454;-85
2021/01/16 00:05:07;;;;;;;13.63;10.40;;;6.10;59.10;;;;;;4878329;29;20952;-84
2021/01/16 00:07:48;;;;;;;;;;;;;;;;;;;;;
2021/01/16 00:10:31;;;;;;;15.50;11.87;;;6.10;58.90;;;;;;4903019;29;20500;-83
2021/01/16 00:12:59;;;;;;;13.87;11.07;;;6.10;58.80;;;;;;4891256;29;20466;-83
2021/01/16 00:15:26;;;;;;;11.37;10.17;;;6.00;58.70;;;;;;4897050;29;20456;-83
2021/01/16 00:18:01;;;;;;;14.63;11.30;;;6.00;58.80;;;;;;4897183;29;20445;-83
2021/01/16 00:20:28;;;;;;;13.30;10.83;;;6.00;58.90;;;;;;4890682;29;20451;-84
2021/01/16 00:22:55;;;;;;;16.23;12.03;;;6.10;58.80;;;;;;4897183;29;20463;-83
2021/01/16 00:25:21;;;;;;;12.90;11.13;;;6.10;58.60;;;;;;4902812;29;20460;-83
2021/01/16 00:27:49;;;;;;;15.80;11.60;;;6.10;58.50;;;;;;4905494;29;20484;-83
2021/01/16 00:37:02;;;;;;;14.63;10.30;;;6.10;58.40;;;;;;4818967;29;20471;-84
2021/01/16 00:39:31;;;;;;;15.20;10.93;;;6.10;58.40;;;;;;4811282;29;20500;-83
2021/01/16 00:42:07;;;;;;;15.10;11.13;;;6.10;58.30;;;;;;4886241;29;20463;-83
2021/01/16 00:44:43;;;;;;;15.63;12.20;;;6.10;58.30;;;;;;4903553;29;20458;-83
2021/01/16 00:47:12;;;;;;;15.60;13.13;;;6.10;58.40;;;;;;4896322;29;20854;-83
2021/01/16 00:49:39;;;;;;;12.13;10.80;;;6.10;58.20;;;;;;4897936;29;20487;-83
2021/01/16 00:52:14;;;;;;;14.03;11.33;;;6.20;58.40;;;;;;4907352;29;21006;-85
2021/01/16 00:54:41;;;;;;;17.70;13.07;;;6.20;58.30;;;;;;4901380;29;20602;-82
2021/01/16 00:57:07;;;;;;;15.17;11.70;;;6.10;58.20;;;;;;4902054;29;20479;-83
2021/01/16 00:59:34;;;;;;;16.07;12.30;;;6.10;58.20;;;;;;4899639;29;20466;-83
2021/01/16 01:02:14;;;;;;;14.77;13.07;;;6.20;58.10;;;;;;4910859;29;20964;-84
2021/01/16 01:04:49;;;;;;;15.33;12.30;;;6.20;58.40;;;;;;4910106;29;21004;-83
2021/01/16 01:07:19;;;;;;;15.30;10.73;;;6.10;58.90;;;;;;4899626;29;20454;-84
2021/01/16 01:10:11;;;;;;;15.03;12.40;;;6.10;58.20;;;;;;4900195;29;20494;-85
2021/01/16 01:12:42;;;;;;;15.67;12.37;;;6.20;58.00;;;;;;4906465;29;20442;-84
2021/01/16 01:15:09;;;;;;;17.17;12.97;;;6.20;58.30;;;;;;4893736;29;20516;-83
2021/01/16 01:24:16;;;;;;;14.87;12.10;;;6.10;57.90;;;;;;4845112;29;20444;-83
2021/01/16 01:26:43;;;;;;;15.53;12.30;;;6.00;57.80;;;;;;4899222;29;20465;-83
2021/01/16 01:29:10;;;;;;;15.80;11.43;;;6.10;58.00;;;;;;4912269;29;20488;-83
2021/01/16 01:31:40;;;;;;;16.70;14.00;;;6.00;58.00;;;;;;4904341;29;20526;-83
2021/01/16 01:40:31;;;;;;;17.50;11.73;;;6.10;58.30;;;;;;4838777;29;20448;-81
2021/01/16 01:43:01;;;;;;;18.50;12.20;;;6.10;58.40;;;;;;4879228;29;20449;-85
2021/01/16 01:45:45;;;;;;;13.77;11.70;;;6.10;58.50;;;;;;4881319;29;20456;-84
2021/01/16 01:48:38;;;;;;;18.10;12.57;;;6.00;58.50;;;;;;4878989;29;20460;-84
2021/01/16 01:51:10;;;;;;;17.13;13.20;;;6.00;58.50;;;;;;4882394;29;20484;-84
2021/01/16 01:53:38;;;;;;;14.03;11.20;;;6.00;58.50;;;;;;4880717;29;20449;-84
2021/01/16 01:56:06;;;;;;;16.30;11.93;;;6.00;58.50;;;;;;4880774;29;20468;-83
2021/01/16 01:58:37;;;;;;;17.20;13.07;;;6.10;58.40;;;;;;4889437;29;20808;-83
2021/01/16 02:01:04;;;;;;;16.00;12.63;;;6.10;58.20;;;;;;4890219;29;20458;-81
2021/01/16 02:03:34;;;;;;;15.13;12.87;;;6.10;57.80;;;;;;4898237;29;20458;-83
2021/01/16 02:06:00;;;;;;;16.17;12.70;;;6.10;57.80;;;;;;4879273;29;20525;-83
2021/01/16 02:11:55;;;;;;;17.20;12.90;;;6.10;57.80;;;;;;4923469;23;20848;-85
2021/01/16 02:14:29;;;;;;;17.53;13.43;;;6.00;58.00;;;;;;4898961;29;20500;-85
2021/01/16 02:16:58;;;;;;;16.40;12.03;;;6.00;58.70;;;;;;4891800;29;20478;-85
2021/01/16 02:19:43;;;;;;;13.87;10.87;;;6.00;58.00;;;;;;4881373;29;20467;-83
2021/01/16 02:22:12;;;;;;;15.17;11.23;;;6.00;57.60;;;;;;4893668;29;20483;-84
2021/01/16 02:24:47;;;;;;;21.37;14.23;;;6.00;57.50;;;;;;4891678;29;20460;-84
2021/01/16 02:27:35;;;;;;;16.73;12.53;;;6.10;57.80;;;;;;4879136;29;20874;-85
2021/01/16 02:30:08;;;;;;;13.80;11.53;;;6.00;58.00;;;;;;4870519;29;20492;-83
2021/01/16 02:32:36;;;;;;;15.90;12.43;;;6.00;58.00;;;;;;4893964;29;20474;-85
2021/01/16 02:35:10;;;;;;;14.17;11.80;;;6.00;58.10;;;;;;4891611;29;20967;-84
2021/01/16 02:37:56;;;;;;;14.60;10.70;;;6.00;58.20;;;;;;4897875;29;20461;-82
2021/01/16 02:40:31;;;;;;;15.33;11.93;;;6.00;58.20;;;;;;4888114;29;20514;-85
2021/01/16 02:43:12;;;;;;;17.00;12.53;;;6.00;57.70;;;;;;4887050;29;20510;-83
2021/01/16 02:45:44;;;;;;;16.57;11.80;;;6.00;57.90;;;;;;4883808;29;20523;-82
2021/01/16 02:48:17;;;;;;;16.40;12.67;;;6.00;58.00;;;;;;4888035;29;20549;-82
2021/01/16 02:50:48;;;;;;;15.47;12.30;;;6.00;57.80;;;;;;4884079;29;20621;-83
2021/01/16 02:53:53;;;;;;;15.40;12.73;;;6.00;57.80;;;;;;4887642;29;20454;-84
2021/01/16 02:57:07;;;;;;;14.87;11.63;;;6.00;58.00;;;;;;4864565;29;20466;-86
2021/01/16 03:16:27;;;;;;;17.20;13.93;;;6.10;58.40;;;;;;5059341;23;20504;-84
2021/01/16 03:19:02;;;;;;;22.97;13.07;;;6.10;58.30;;;;;;4898596;29;20471;-85
2021/01/16 03:21:30;;;;;;;17.27;11.50;;;6.10;58.40;;;;;;4897433;29;20460;-85
2021/01/16 03:24:04;;;;;;;19.20;13.37;;;6.10;58.10;;;;;;4896936;29;20893;-85
2021/01/16 03:26:31;;;;;;;18.97;12.87;;;6.10;58.10;;;;;;4895615;29;20455;-84
2021/01/16 03:28:58;;;;;;;15.50;12.37;;;6.10;58.00;;;;;;4897048;29;20537;-83
2021/01/16 03:31:27;;;;;;;19.73;15.00;;;6.10;58.00;;;;;;4898451;29;20461;-84
2021/01/16 03:33:54;;;;;;;21.43;13.97;;;6.10;58.10;;;;;;4897079;29;20475;-84
2021/01/16 03:36:21;;;;;;;16.70;14.20;;;6.10;58.20;;;;;;4897108;29;20538;-83
2021/01/16 03:38:47;;;;;;;19.33;13.70;;;6.00;58.20;;;;;;4896935;29;20466;-83
2021/01/16 03:41:14;;;;;;;15.30;12.47;;;6.00;58.30;;;;;;4899017;29;21026;-82
2021/01/16 03:43:40;;;;;;;19.07;14.03;;;6.00;58.40;;;;;;4898090;29;20457;-82
2021/01/16 03:46:07;;;;;;;22.80;14.73;;;5.90;58.50;;;;;;4897408;29;20468;-82
2021/01/16 03:48:35;;;;;;;18.30;13.30;;;5.90;58.60;;;;;;4899030;29;20857;-82
2021/01/16 03:51:02;;;;;;;20.40;13.60;;;5.90;58.40;;;;;;4915052;29;20462;-82
2021/01/16 03:53:29;;;;;;;18.47;14.63;;;5.90;58.50;;;;;;4900240;29;20848;-82
2021/01/16 03:55:55;;;;;;;18.47;14.80;;;5.90;58.40;;;;;;4898342;29;20982;-83
2021/01/16 03:58:22;;;;;;;19.07;14.23;;;5.90;58.60;;;;;;4900754;29;20462;-84
2021/01/16 04:00:49;;;;;;;19.47;13.13;;;5.90;59.10;;;;;;4913657;29;20552;-82
2021/01/16 04:03:16;;;;;;;16.00;13.43;;;5.90;58.30;;;;;;4911181;29;20870;-82
2021/01/16 04:05:43;;;;;;;20.77;16.50;;;5.90;58.40;;;;;;4914415;29;20832;-83
2021/01/16 04:08:10;;;;;;;25.23;16.90;;;5.90;58.70;;;;;;4902785;29;20461;-83
2021/01/16 04:11:01;;;;;;;20.07;14.60;;;5.90;58.70;;;;;;4909257;29;20518;-85
2021/01/16 04:16:31;;;;;;;19.70;14.13;;;5.90;58.40;;;;;;4814462;29;21100;-83
2021/01/16 04:18:58;;;;;;;21.17;16.30;;;5.90;58.40;;;;;;4893752;29;20533;-84
2021/01/16 04:21:26;;;;;;;22.17;14.50;;;5.90;58.50;;;;;;4897028;29;20461;-83
2021/01/16 04:23:52;;;;;;;18.20;14.10;;;5.90;58.40;;;;;;4896856;29;20474;-84
2021/01/16 04:27:02;;;;;;;20.00;15.07;;;5.90;58.50;;;;;;4907146;29;20549;-84
2021/01/16 04:29:29;;;;;;;21.83;15.30;;;5.90;58.70;;;;;;4911082;29;20544;-82
2021/01/16 04:31:56;;;;;;;20.80;14.60;;;5.90;58.30;;;;;;4903245;29;20467;-82
2021/01/16 04:34:22;;;;;;;22.43;14.60;;;5.90;58.60;;;;;;4901368;29;20844;-82
2021/01/16 04:36:50;;;;;;;17.47;13.50;;;5.80;58.40;;;;;;4902522;29;20458;-84
2021/01/16 04:39:17;;;;;;;18.07;14.70;;;5.90;58.50;;;;;;4914635;29;20459;-81
2021/01/16 04:41:46;;;;;;;16.70;13.50;;;5.80;58.70;;;;;;4899910;29;20478;-83
2021/01/16 04:44:14;;;;;;;18.70;13.97;;;5.90;58.60;;;;;;4901294;29;20877;-80
2021/01/16 04:46:42;;;;;;;19.97;13.67;;;5.90;58.50;;;;;;4906738;29;21004;-81
2021/01/16 04:49:09;;;;;;;20.87;13.83;;;5.90;58.50;;;;;;4903657;29;20552;-82
2021/01/16 04:51:43;;;;;;;22.23;14.87;;;5.90;58.80;;;;;;4919351;29;20524;-82
2021/01/16 04:54:14;;;;;;;21.53;14.00;;;5.90;58.90;;;;;;4900785;29;20465;-84
2021/01/16 04:56:41;;;;;;;20.57;14.83;;;5.90;58.60;;;;;;4902126;29;20497;-83
2021/01/16 05:41:55;;;;;;;19.40;13.80;;;5.80;59.00;;;;;;4751238;30;20999;-83
2021/01/16 05:44:22;;;;;;;19.37;15.03;;;5.70;58.90;;;;;;4792539;29;20453;-80
2021/01/16 05:46:51;;;;;;;23.53;16.00;;;5.70;59.00;;;;;;4893924;29;20495;-83
2021/01/16 05:49:18;;;;;;;19.37;14.30;;;5.70;59.30;;;;;;4899768;29;20493;-81
2021/01/16 05:51:50;;;;;;;20.00;13.17;;;5.70;59.00;;;;;;4901906;29;20457;-85
2021/01/16 05:54:18;;;;;;;19.23;13.13;;;5.70;59.20;;;;;;4905970;29;20512;-83
2021/01/16 05:56:47;;;;;;;19.70;16.30;;;5.70;59.20;;;;;;4913419;29;20530;-82
2021/01/16 05:59:16;;;;;;;19.17;14.90;;;5.80;59.20;;;;;;4902289;29;20468;-83
2021/01/16 06:01:45;;;;;;;24.30;16.30;;;5.80;58.80;;;;;;4898781;29;20542;-81
2021/01/16 06:04:16;;;;;;;21.60;15.50;;;5.80;58.90;;;;;;4899303;29;20478;-81
2021/01/16 06:06:43;;;;;;;21.70;16.27;;;5.80;59.10;;;;;;4896228;29;20964;-81
2021/01/16 06:09:15;;;;;;;21.07;14.17;;;5.80;59.20;;;;;;4899585;29;20873;-78
2021/01/16 06:11:46;;;;;;;15.40;13.20;;;5.80;59.30;;;;;;4897622;29;20519;-80
2021/01/16 06:14:13;;;;;;;19.77;15.70;;;5.70;58.80;;;;;;4904730;29;20459;-82
2021/01/16 06:16:51;;;;;;;20.20;15.07;;;5.70;59.20;;;;;;4898332;29;20454;-81
2021/01/16 06:19:23;;;;;;;19.33;15.13;;;5.60;59.20;;;;;;4901807;29;20478;-80
2021/01/16 06:21:50;;;;;;;21.60;14.17;;;5.60;59.10;;;;;;4899452;29;20529;-82
2021/01/16 06:24:19;;;;;;;23.30;15.30;;;5.70;58.90;;;;;;4898474;29;20824;-79
2021/01/16 06:26:55;;;;;;;19.57;14.47;;;5.70;58.50;;;;;;4901055;29;20491;-81
2021/01/16 06:29:27;;;;;;;19.00;13.43;;;5.70;58.50;;;;;;4897418;29;20567;-81
2021/01/16 06:32:02;;;;;;;24.20;14.87;;;5.70;58.70;;;;;;4897540;29;20830;-82
2021/01/16 06:34:31;;;;;;;22.40;14.93;;;5.70;58.60;;;;;;4901079;29;20461;-81
2021/01/16 06:37:09;;;;;;;26.63;15.80;;;5.70;58.80;;;;;;4902218;29;20462;-81
2021/01/16 06:39:37;;;;;;;17.90;13.80;;;5.80;58.70;;;;;;4904780;29;20454;-80
2021/01/16 06:42:09;;;;;;;20.00;14.27;;;5.70;58.80;;;;;;4898162;29;20471;-81
2021/01/16 06:44:35;;;;;;;17.47;13.73;;;5.70;58.60;;;;;;4898325;29;20487;-81
2021/01/16 06:47:03;;;;;;;24.23;15.27;;;5.70;58.20;;;;;;4898672;29;20462;-82
2021/01/16 06:49:32;;;;;;;22.53;14.30;;;5.70;58.10;;;;;;4897753;29;20491;-82
2021/01/16 06:52:13;;;;;;;18.70;14.50;;;5.70;58.40;;;;;;4896259;29;20464;-84
2021/01/16 06:54:40;;;;;;;18.70;13.77;;;5.70;58.50;;;;;;4898136;29;20512;-83
2021/01/16 06:57:10;;;;;;;19.87;14.60;;;5.60;58.70;;;;;;4900791;29;20463;-81
2021/01/16 06:59:38;;;;;;;18.90;14.30;;;5.60;58.80;;;;;;4895965;29;20963;-81
2021/01/16 07:02:27;;;;;;;21.43;15.00;;;5.60;58.80;;;;;;4897624;29;20485;-81
2021/01/16 07:04:56;;;;;;;18.10;12.93;;;5.60;59.00;;;;;;4887984;29;20463;-79
2021/01/16 07:07:31;;;;;;;20.50;15.83;;;5.60;59.10;;;;;;4899713;29;20457;-79
2021/01/16 07:10:00;;;;;;;20.80;16.00;;;5.60;59.10;;;;;;4900834;29;20509;-78
2021/01/16 07:12:28;;;;;;;19.50;15.40;;;5.60;59.10;;;;;;4904828;29;20512;-80
2021/01/16 07:14:55;;;;;;;16.37;13.87;;;5.60;59.20;;;;;;4903109;29;20500;-79
2021/01/16 07:17:23;;;;;;;22.13;16.27;;;5.60;59.30;;;;;;4903585;29;20459;-80
2021/01/16 07:19:50;;;;;;;20.70;14.53;;;5.60;59.30;;;;;;4898210;29;20512;-79
2021/01/16 07:22:17;;;;;;;23.30;15.37;;;5.60;59.30;;;;;;4898597;29;20474;-80
2021/01/16 07:24:46;;;;;;;24.23;15.60;;;5.60;59.30;;;;;;4897377;29;20466;-80
2021/01/16 07:27:13;;;;;;;19.73;15.10;;;5.60;59.40;;;;;;4907100;29;20580;-80
2021/01/16 07:29:42;;;;;;;19.60;14.57;;;5.60;59.30;;;;;;4910037;29;20492;-82
2021/01/16 07:32:20;;;;;;;24.10;16.30;;;5.70;58.80;;;;;;4904252;29;20938;-83
2021/01/16 07:34:48;;;;;;;17.77;13.90;;;5.70;58.70;;;;;;4909250;29;20798;-81
2021/01/16 07:37:17;;;;;;;22.33;15.93;;;5.70;58.90;;;;;;4893796;29;20463;-81
2021/01/16 07:39:45;;;;;;;19.63;15.50;;;5.70;58.70;;;;;;4907990;29;20490;-83
2021/01/16 07:42:14;;;;;;;21.23;16.80;;;5.80;58.50;;;;;;4900166;29;20458;-84
2021/01/16 07:44:46;;;;;;;17.23;14.40;;;5.80;58.30;;;;;;4916203;29;20891;-82
2021/01/16 07:47:24;;;;;;;23.97;16.57;;;5.80;58.10;;;;;;4907259;29;20955;-81
2021/01/16 07:49:55;;;;;;;21.03;15.37;;;5.80;58.50;;;;;;4899826;29;20496;-80
2021/01/16 07:52:27;;;;;;;23.90;14.93;;;5.70;58.60;;;;;;4902325;29;20452;-81
2021/01/16 07:55:12;;;;;;;19.97;14.70;;;5.70;58.80;;;;;;4905926;29;20508;-82
2021/01/16 07:57:48;;;;;;;20.63;15.60;;;5.80;59.00;;;;;;4897375;29;20462;-82
2021/01/16 08:00:17;;;;;;;25.37;17.37;;;5.80;58.50;;;;;;4898924;29;20470;-82
2021/01/16 08:03:08;;;;;;;22.00;14.53;;;5.90;58.50;;;;;;4900845;29;20455;-82
2021/01/16 08:05:45;;;;;;;22.20;14.50;;;5.90;58.40;;;;;;4892859;29;20502;-80
2021/01/16 08:08:45;;;;;;;21.67;15.10;;;5.90;58.30;;;;;;4904126;29;20458;-78
2021/01/16 08:11:16;;;;;;;18.60;14.77;;;5.80;58.10;;;;;;4900698;29;20989;-78
2021/01/16 08:13:51;;;;;;;18.73;14.20;;;5.80;58.20;;;;;;4900874;29;20458;-79
2021/01/16 08:25:49;;;;;;;24.17;16.03;;;5.80;58.80;;;;;;4866309;29;20450;-81
2021/01/16 08:28:26;;;;;;;18.57;14.80;;;5.80;58.90;;;;;;4900806;29;20483;-82
2021/01/16 08:30:56;;;;;;;20.27;14.13;;;5.90;58.70;;;;;;4908960;29;20490;-85
2021/01/16 08:33:38;;;;;;;22.37;15.20;;;5.90;58.50;;;;;;4901690;29;20522;-82
2021/01/16 08:36:18;;;;;;;22.23;16.20;;;5.90;58.40;;;;;;4906071;29;20474;-81
2021/01/16 08:38:56;;;;;;;20.37;16.50;;;5.90;58.80;;;;;;4902787;29;21016;-86
2021/01/16 08:45:50;;;;;;;19.83;16.07;;;5.90;58.70;;;;;;4888120;29;21040;-88
2021/01/16 08:48:25;;;;;;;24.20;15.27;;;5.90;58.90;;;;;;4820743;29;20482;-87
2021/01/16 08:54:48;;;;;;;18.83;14.50;;;5.90;59.10;;;;;;4892207;29;20559;-83
2021/01/16 08:58:05;;;;;;;22.03;15.97;;;5.80;59.10;;;;;;4899119;29;20458;-83
2021/01/16 09:01:07;;;;;;;23.73;15.40;;;5.70;59.60;;;;;;4905642;29;20554;-81
2021/01/16 09:06:42;;;;;;;25.17;17.60;;;5.80;61.00;;;;;;4900924;29;20451;-80
2021/01/16 09:09:11;;;;;;;24.00;16.20;;;5.90;60.00;;;;;;4899225;29;20470;-80
2021/01/16 09:42:05;;;;;;;23.23;14.57;;;6.10;59.30;;;;;;4785071;29;20536;-81
2021/01/16 09:44:51;;;;;;;16.57;12.97;;;6.00;58.40;;;;;;4793659;29;20883;-80
2021/01/16 09:47:42;;;;;;;24.97;14.50;;;6.00;58.60;;;;;;4899286;29;21015;-82
2021/01/16 09:50:18;;;;;;;17.73;12.83;;;6.00;58.80;;;;;;4883263;29;20495;-82
2021/01/16 09:52:50;;;;;;;17.60;13.33;;;6.10;58.90;;;;;;4905190;29;20466;-82
2021/01/16 09:55:23;;;;;;;18.40;13.30;;;6.10;58.80;;;;;;4905662;29;20455;-82
2021/01/16 09:57:51;;;;;;;18.70;11.83;;;6.20;58.40;;;;;;4903582;29;20510;-81
2021/01/16 10:00:25;;;;;;;16.37;13.37;;;6.20;58.00;;;;;;4912186;29;21001;-81
2021/01/16 10:02:58;;;;;;;15.63;11.80;;;6.20;58.00;;;;;;4902943;29;20981;-80
2021/01/16 10:05:32;;;;;;;15.00;11.43;;;6.20;57.20;;;;;;4917881;29;20489;-81
2021/01/16 10:07:59;;;;;;;15.73;11.77;;;6.20;57.20;;;;;;4916357;29;20521;-81
2021/01/16 10:10:26;;;;;;;11.90;9.50;;;6.30;57.00;;;;;;4914288;29;20498;-81
2021/01/16 10:13:02;;;;;;;15.00;11.50;;;6.40;56.80;;;;;;4898582;29;20625;-81
2021/01/16 10:15:33;;;;;;;12.17;10.63;;;6.40;56.30;;;;;;4898828;29;20459;-80
2021/01/16 10:18:01;;;;;;;12.07;9.50;;;6.40;55.80;;;;;;4898855;29;20525;-80
2021/01/16 10:20:33;;;;;;;13.27;10.30;;;6.50;55.80;;;;;;4898864;29;20483;-83
2021/01/16 10:23:05;;;;;;;13.13;10.67;;;6.50;55.40;;;;;;4898514;29;20979;-80
2021/01/16 10:25:42;;;;;;;15.77;10.50;;;6.60;55.70;;;;;;4898741;29;20464;-79
2021/01/16 10:28:12;;;;;;;11.83;9.73;;;6.60;55.50;;;;;;4897281;29;20469;-80
2021/01/16 10:30:52;;;;;;;15.77;10.83;;;6.70;55.40;;;;;;4897626;29;20983;-80
2021/01/16 10:33:22;;;;;;;13.63;10.40;;;6.70;54.70;;;;;;4887962;29;20502;-83
2021/01/16 10:36:03;;;;;;;13.07;10.43;;;6.70;54.60;;;;;;4896427;29;20462;-80
2021/01/16 10:38:49;;;;;;;11.17;9.97;;;6.80;55.00;;;;;;4895502;29;20462;-80
2021/01/16 10:41:19;;;;;;;13.83;10.27;;;6.90;54.70;;;;;;4897102;29;20467;-79
2021/01/16 10:43:45;;;;;;;10.00;8.20;;;6.90;54.30;;;;;;4897154;29;20950;-80
2021/01/16 10:46:31;;;;;;;11.80;9.27;;;6.90;53.40;;;;;;4897946;29;20474;-81
2021/01/16 10:49:19;;;;;;;10.60;8.80;;;6.90;53.40;;;;;;4897164;29;20497;-84
2021/01/16 10:52:09;;;;;;;9.83;8.57;;;6.90;52.70;;;;;;4896817;29;20501;-82
2021/01/16 10:54:41;;;;;;;13.57;10.60;;;6.90;52.80;;;;;;4898125;29;21764;-82
2021/01/16 10:57:09;;;;;;;11.30;8.70;;;7.00;52.80;;;;;;4897950;29;20487;-81
2021/01/16 10:59:38;;;;;;;10.23;9.13;;;7.10;52.50;;;;;;4897948;29;20460;-82
2021/01/16 11:02:10;;;;;;;9.37;8.47;;;7.10;52.50;;;;;;4896673;29;20470;-82
2021/01/16 11:04:43;;;;;;;13.83;9.60;;;7.10;52.10;;;;;;4897868;29;20468;-82
2021/01/16 11:07:28;;;;;;;12.73;9.63;;;7.00;52.00;;;;;;4897931;29;20998;-83
2021/01/16 11:12:52;;;;;;;8.67;7.80;;;7.00;50.90;;;;;;4877620;29;20856;-81
2021/01/16 11:15:30;;;;;;;7.17;6.47;;;6.90;50.50;;;;;;4879001;29;20881;-81
2021/01/16 11:17:58;;;;;;;9.43;6.87;;;6.90;50.90;;;;;;4879153;29;20817;-81
2021/01/16 11:20:34;;;;;;;9.40;7.97;;;6.80;50.70;;;;;;4878764;29;20468;-82
2021/01/16 11:23:58;;;;;;;10.90;7.30;;;6.80;50.80;;;;;;4889015;29;20464;-81
2021/01/16 11:26:42;;;;;;;8.87;7.43;;;6.90;51.00;;;;;;4896682;29;20448;-83
2021/01/16 11:29:19;;;;;;;8.23;7.17;;;7.00;50.40;;;;;;4897512;29;20459;-81
2021/01/16 11:31:51;;;;;;;7.60;6.80;;;7.00;50.00;;;;;;4897587;29;20498;-82
2021/01/16 11:37:12;;;;;;;9.13;7.33;;;9.00;48.50;;;;;;4908538;29;20534;-83
2021/01/16 11:39:56;;;;;;;10.73;7.50;;;9.70;44.80;;;;;;4898432;29;20483;-83
2021/01/16 11:42:54;;;;;;;7.97;7.00;;;9.50;44.70;;;;;;4903453;29;20479;-83
2021/01/16 11:45:29;;;;;;;11.77;7.73;;;9.10;44.60;;;;;;4916274;29;20497;-83
2021/01/16 11:48:00;;;;;;;12.07;6.80;;;8.70;45.00;;;;;;4905283;29;20529;-82
2021/01/16 11:50:36;;;;;;;10.90;7.73;;;8.50;45.50;;;;;;4896694;29;20573;-82
2021/01/16 11:53:19;;;;;;;7.97;6.17;;;8.30;45.80;;;;;;4905864;29;20459;-84
2021/01/16 11:56:09;;;;;;;7.10;6.40;;;8.10;45.50;;;;;;4905705;29;20976;-83
2021/01/16 11:58:42;;;;;;;6.70;5.77;;;7.90;45.30;;;;;;4897029;29;20476;-83
2021/01/16 12:01:09;;;;;;;12.97;11.00;;;7.80;45.60;;;;;;4908881;29;20470;-83
2021/01/16 12:03:42;;;;;;;12.77;10.30;;;7.70;46.30;;;;;;4904661;29;20458;-83
2021/01/16 12:06:18;;;;;;;13.87;11.97;;;7.70;47.40;;;;;;4901350;29;20554;-83
2021/01/16 12:08:48;;;;;;;14.77;6.73;;;7.60;48.10;;;;;;4916040;29;20967;-83
2021/01/16 12:11:22;;;;;;;14.93;10.80;;;7.60;47.90;;;;;;4904646;29;20553;-83
2021/01/16 12:13:53;;;;;;;10.53;9.33;;;7.50;47.70;;;;;;4896523;29;20463;-83
2021/01/16 12:16:20;;;;;;;10.20;8.83;;;7.50;48.00;;;;;;4905184;29;20967;-81
2021/01/16 12:18:52;;;;;;;7.53;6.57;;;7.30;48.00;;;;;;4901144;29;20452;-82
2021/01/16 12:21:28;;;;;;;12.83;9.87;;;7.20;47.30;;;;;;4902557;29;20472;-83
2021/01/16 12:23:59;;;;;;;19.27;13.77;;;7.10;47.20;;;;;;4915964;29;20491;-83
2021/01/16 12:26:33;;;;;;;16.30;12.30;;;7.10;48.40;;;;;;4907458;29;20462;-83
2021/01/16 12:29:11;;;;;;;21.70;14.27;;;7.10;49.30;;;;;;4898503;29;20457;-82
2021/01/16 12:31:38;;;;;;;16.27;13.53;;;7.20;49.80;;;;;;4896364;29;20480;-81
2021/01/16 12:34:33;;;;;;;16.67;14.40;;;7.20;50.10;;;;;;4896625;29;20481;-83
2021/01/16 12:37:24;;;;;;;21.33;15.47;;;7.20;50.50;;;;;;4892970;29;20467;-84
2021/01/16 12:39:51;;;;;;;23.57;15.40;;;7.30;51.00;;;;;;4895853;29;20989;-81
2021/01/16 12:42:19;;;;;;;24.13;13.83;;;7.30;51.50;;;;;;4911646;29;20902;-82
2021/01/16 12:44:52;;;;;;;20.37;14.90;;;7.20;51.80;;;;;;4899442;29;20465;-80
2021/01/16 12:47:29;;;;;;;17.87;13.27;;;7.20;51.80;;;;;;4895989;29;20457;-81
2021/01/16 12:52:53;;;;;;;19.27;12.07;;;7.20;52.10;;;;;;4899341;29;20475;-81
2021/01/16 12:55:24;;;;;;;14.40;11.60;;;7.20;51.70;;;;;;4918678;29;20459;-82
2021/01/16 12:57:55;;;;;;;18.90;11.77;;;7.00;51.00;;;;;;4913190;29;20487;-81
2021/01/16 13:00:27;;;;;;;21.37;13.20;;;7.00;50.80;;;;;;4904136;29;20482;-82
2021/01/16 13:03:06;;;;;;;15.10;11.60;;;7.00;50.90;;;;;;4899886;29;20487;-82
2021/01/16 13:05:38;;;;;;;21.10;12.70;;;7.00;50.80;;;;;;4899815;29;20465;-80
2021/01/16 13:08:07;;;;;;;17.60;11.10;;;7.00;51.00;;;;;;4904874;29;20467;-80
2021/01/16 13:10:46;;;;;;;17.03;12.63;;;7.00;50.90;;;;;;4899309;29;20506;-80
2021/01/16 13:13:16;;;;;;;17.90;12.37;;;7.00;51.00;;;;;;4916421;29;20451;-80
2021/01/16 13:15:46;;;;;;;21.13;13.57;;;7.10;51.30;;;;;;4902248;29;20464;-79
2021/01/16 13:18:14;;;;;;;14.10;11.77;;;7.00;50.70;;;;;;4900318;29;20452;-80
2021/01/16 13:20:52;;;;;;;17.47;13.60;;;7.10;50.80;;;;;;4904913;29;20514;-79
2021/01/16 13:23:41;;;;;;;21.00;15.10;;;7.10;51.00;;;;;;4880668;29;20448;-80
2021/01/16 13:26:08;;;;;;;18.40;13.70;;;7.00;51.30;;;;;;4914350;29;20587;-80
2021/01/16 13:28:39;;;;;;;19.03;13.63;;;7.00;51.70;;;;;;4916238;29;20467;-80
2021/01/16 13:31:08;;;;;;;17.33;13.83;;;6.90;51.90;;;;;;4907781;29;20528;-80
2021/01/16 13:33:45;;;;;;;16.40;14.67;;;6.90;52.30;;;;;;4898807;29;20462;-78
2021/01/16 13:36:17;;;;;;;19.00;14.50;;;6.80;52.60;;;;;;4915261;29;20461;-79
2021/01/16 13:38:44;;;;;;;22.90;16.03;;;6.90;52.80;;;;;;4916515;29;20499;-78
2021/01/16 13:41:11;;;;;;;18.63;14.20;;;6.90;52.90;;;;;;4913210;29;20466;-79
2021/01/16 13:43:40;;;;;;;16.80;13.13;;;6.90;53.00;;;;;;4917571;29;20470;-79
2021/01/16 13:46:10;;;;;;;19.13;14.50;;;6.80;52.80;;;;;;4905010;29;20787;-79
2021/01/16 13:48:39;;;;;;;22.20;15.83;;;6.90;52.90;;;;;;4900017;29;20460;-80
2021/01/16 13:51:23;;;;;;;19.97;14.90;;;6.90;53.10;;;;;;4901445;29;20916;-79
2021/01/16 13:53:53;;;;;;;22.97;15.43;;;6.80;52.80;;;;;;4900952;29;20469;-80
2021/01/16 13:56:20;;;;;;;18.67;16.03;;;6.80;53.20;;;;;;4899977;29;20467;-79
2021/01/16 13:58:47;;;;;;;22.27;14.67;;;6.70;53.30;;;;;;4898345;29;20462;-79
2021/01/16 14:01:36;;;;;;;19.93;14.40;;;6.70;53.40;;;;;;4900268;29;20492;-81
2021/01/16 14:04:06;;;;;;;26.43;15.00;;;6.70;53.60;;;;;;4898371;29;20455;-82
2021/01/16 14:06:50;;;;;;;19.43;14.10;;;6.70;53.60;;;;;;4915000;29;20464;-82
2021/01/16 14:09:30;;;;;;;17.57;13.13;;;6.70;53.40;;;;;;4914759;29;20459;-79
2021/01/16 14:12:03;;;;;;;16.87;13.60;;;6.70;53.50;;;;;;4901454;29;20472;-80
2021/01/16 14:14:32;;;;;;;20.10;14.97;;;6.70;53.50;;;;;;4900653;29;20947;-80
2021/01/16 14:17:11;;;;;;;22.70;16.30;;;6.70;53.60;;;;;;4907747;29;20471;-80
2021/01/16 14:19:38;;;;;;;16.37;14.53;;;6.70;53.60;;;;;;4902071;29;20470;-78
2021/01/16 14:22:08;;;;;;;19.57;15.13;;;6.50;53.10;;;;;;4898345;29;20547;-81
2021/01/16 14:24:40;;;;;;;22.67;14.73;;;6.50;53.60;;;;;;4914593;29;20495;-79
2021/01/16 14:27:07;;;;;;;19.13;15.03;;;6.50;53.80;;;;;;4913550;29;20525;-80
2021/01/16 14:29:44;;;;;;;28.33;16.73;;;6.50;54.00;;;;;;4905550;29;20470;-82
2021/01/16 14:32:12;;;;;;;23.73;17.30;;;6.50;54.00;;;;;;4916788;29;20469;-82
2021/01/16 14:34:40;;;;;;;22.50;15.70;;;6.50;53.90;;;;;;4916900;29;20594;-81
2021/01/16 14:37:09;;;;;;;18.23;15.30;;;6.50;53.90;;;;;;4915430;29;20467;-79
2021/01/16 14:39:43;;;;;;;20.00;15.70;;;6.50;53.90;;;;;;4901680;29;20820;-80
2021/01/16 14:42:18;;;;;;;22.13;15.63;;;6.40;53.70;;;;;;4897685;29;20562;-81
2021/01/16 14:44:46;;;;;;;22.50;16.07;;;6.30;53.80;;;;;;4904140;29;20506;-80
2021/01/16 14:47:15;;;;;;;20.97;15.60;;;6.30;53.90;;;;;;4908772;29;20470;-81
2021/01/16 14:49:41;;;;;;;20.07;15.87;;;6.40;54.10;;;;;;4898232;29;20471;-80
2021/01/16 14:52:34;;;;;;;23.83;16.03;;;6.30;53.90;;;;;;4901585;29;20959;-82
2021/01/16 14:55:09;;;;;;;20.50;14.80;;;6.30;53.90;;;;;;4899295;29;20859;-80
2021/01/16 14:57:43;;;;;;;25.73;15.33;;;6.30;54.20;;;;;;4911090;29;20464;-80
2021/01/16 15:00:27;;;;;;;22.23;15.03;;;6.30;54.40;;;;;;4901361;29;20466;-80
2021/01/16 15:03:07;;;;;;;22.73;15.40;;;6.30;54.30;;;;;;4897765;29;20463;-81
2021/01/16 15:05:37;;;;;;;20.10;16.27;;;6.30;54.30;;;;;;4915350;29;20877;-80
2021/01/16 15:08:09;;;;;;;20.67;15.77;;;6.30;54.00;;;;;;4898049;29;20464;-79
2021/01/16 15:10:40;;;;;;;30.40;15.43;;;6.20;54.00;;;;;;4896572;29;20507;-79
2021/01/16 15:13:07;;;;;;;22.00;16.43;;;6.20;53.90;;;;;;4909978;29;20466;-78
2021/01/16 15:15:37;;;;;;;27.33;16.57;;;6.20;54.50;;;;;;4905380;29;20868;-79
2021/01/16 15:18:08;;;;;;;21.60;14.40;;;6.20;54.00;;;;;;4897919;29;20451;-81
2021/01/16 15:20:36;;;;;;;26.03;17.23;;;6.20;54.20;;;;;;4907283;29;20459;-80
2021/01/16 15:23:06;;;;;;;22.17;13.90;;;6.20;54.00;;;;;;4896681;29;20436;-82
2021/01/16 15:25:33;;;;;;;24.90;14.40;;;6.20;54.10;;;;;;4897860;29;20447;-80
2021/01/16 15:28:00;;;;;;;18.83;13.93;;;6.10;53.90;;;;;;4896582;29;20484;-81
2021/01/16 15:30:28;;;;;;;27.20;15.67;;;6.10;54.00;;;;;;4902601;29;21096;-81
2021/01/16 15:33:03;;;;;;;20.83;13.20;;;6.10;54.10;;;;;;4897462;29;21076;-80
2021/01/16 15:35:37;;;;;;;19.10;14.43;;;6.10;53.90;;;;;;4901143;29;20484;-80
2021/01/16 15:38:05;;;;;;;17.00;13.93;;;6.00;53.80;;;;;;4897624;29;20463;-81